Time;durP1;ratioP1;P1;durP2;ratioP2;P2;SDS_P1;SDS_P2;PMS_P1;PMS_P2;Temp;Humidity;BMP_temperature;BMP_pressure;BME280_temperature;BME280_humidity;BME280_pressure;Samples;Min_cycle;Max_cycle;Signal;HPM_P1;HPM_P2
2022/05/29 00:00:34;;;;;;;14.50;6.92;;;;;;;8.18;70.30;98327.61;1651934;86;27287;-58
2022/05/29 00:03:00;;;;;;;12.90;6.83;;;;;;;8.22;70.17;98331.87;1654587;85;25447;-58
2022/05/29 00:05:26;;;;;;;12.00;6.53;;;;;;;8.26;69.94;98330.96;1650863;86;25679;-59
2022/05/29 00:07:53;;;;;;;12.60;6.53;;;;;;;8.31;69.67;98329.23;1651142;85;25812;-60
2022/05/29 00:10:20;;;;;;;13.68;7.17;;;;;;;8.38;69.74;98327.70;1651141;86;25606;-60
2022/05/29 00:12:45;;;;;;;13.78;7.03;;;;;;;8.40;69.53;98322.75;1652611;86;28420;-58
2022/05/29 00:15:13;;;;;;;15.65;7.00;;;;;;;8.39;69.64;98321.14;1652306;85;25654;-60
2022/05/29 00:17:39;;;;;;;12.00;6.30;;;;;;;8.40;69.74;98324.66;1656992;85;25658;-57
2022/05/29 00:20:08;;;;;;;20.37;9.70;;;;;;;8.38;69.77;98328.27;1650998;85;26454;-56
2022/05/29 00:22:34;;;;;;;24.57;12.03;;;;;;;8.29;69.75;98323.52;1648414;87;25741;-60
2022/05/29 00:25:05;;;;;;;17.52;8.50;;;;;;;8.24;69.76;98320.11;1649017;86;27631;-60
2022/05/29 00:27:31;;;;;;;15.15;6.42;;;;;;;8.19;69.78;98318.84;1649561;87;25748;-58
2022/05/29 00:29:57;;;;;;;14.33;6.60;;;;;;;8.17;69.86;98316.42;1649479;87;25768;-58
2022/05/29 00:32:22;;;;;;;15.75;8.58;;;;;;;8.14;69.81;98321.94;1649284;87;26549;-60
2022/05/29 00:34:48;;;;;;;10.93;5.80;;;;;;;8.12;70.17;98320.64;1649577;86;25648;-61
2022/05/29 00:37:14;;;;;;;10.63;5.28;;;;;;;8.10;70.14;98319.58;1649274;87;28252;-57
2022/05/29 00:39:41;;;;;;;9.43;4.70;;;;;;;8.11;70.08;98323.91;1649029;87;25704;-57
2022/05/29 00:42:09;;;;;;;9.45;4.92;;;;;;;8.14;69.95;98323.30;1649439;87;25663;-58
2022/05/29 00:44:35;;;;;;;8.05;4.50;;;;;;;8.15;70.13;98323.55;1649466;87;25736;-57
2022/05/29 00:47:14;;;;;;;10.35;4.70;;;;;;;8.16;69.86;98321.09;1649431;87;25815;-57
2022/05/29 00:49:43;;;;;;;9.60;4.78;;;;;;;8.18;69.96;98315.87;1649533;87;27393;-57
2022/05/29 00:52:16;;;;;;;8.80;4.65;;;;;;;8.22;69.88;98317.69;1648925;87;25459;-56
2022/05/29 00:54:56;;;;;;;9.13;5.20;;;;;;;8.22;69.87;98314.13;1649193;87;25632;-56
2022/05/29 00:57:33;;;;;;;11.10;5.30;;;;;;;8.22;69.68;98318.23;1649710;87;25926;-57
2022/05/29 01:00:04;;;;;;;8.28;4.70;;;;;;;8.21;69.60;98315.26;1630137;86;25467;-56
2022/05/29 01:02:30;;;;;;;10.15;5.28;;;;;;;8.16;69.46;98311.53;1650951;86;27444;-56
2022/05/29 01:04:57;;;;;;;10.85;5.28;;;;;;;8.17;69.62;98306.86;1650505;86;25719;-56
2022/05/29 01:07:25;;;;;;;9.28;5.33;;;;;;;8.14;69.60;98306.93;1649472;87;25651;-56
2022/05/29 01:09:52;;;;;;;9.48;5.33;;;;;;;8.12;69.70;98304.27;1632487;87;26464;-56
2022/05/29 01:12:35;;;;;;;11.28;5.30;;;;;;;8.08;69.79;98304.60;1649447;86;25468;-56
2022/05/29 01:15:34;;;;;;;12.40;5.70;;;;;;;8.02;69.86;98302.55;1649161;86;27478;-56
2022/05/29 01:18:32;;;;;;;9.30;4.97;;;;;;;7.96;69.82;98303.77;1656156;86;25674;-58
2022/05/29 01:21:19;;;;;;;10.30;5.40;;;;;;;7.89;69.95;98303.62;1651728;86;25526;-57
2022/05/29 01:24:29;;;;;;;10.38;4.90;;;;;;;7.84;70.01;98302.37;1651632;86;26243;-59
2022/05/29 01:27:51;;;;;;;7.40;4.53;;;;;;;7.81;70.10;98296.16;1652114;86;25686;-58
2022/05/29 01:30:22;;;;;;;8.45;4.87;;;;;;;7.80;70.16;98301.34;1651962;86;27539;-57
2022/05/29 01:33:19;;;;;;;17.23;7.12;;;;;;;7.81;70.11;98301.63;1652019;86;26268;-59
2022/05/29 01:36:03;;;;;;;15.32;7.37;;;;;;;7.81;70.47;98298.08;1652126;86;25645;-55
2022/05/29 01:38:58;;;;;;;8.45;4.78;;;;;;;7.84;70.27;98292.83;1645640;86;25683;-57
2022/05/29 01:41:42;;;;;;;12.82;5.40;;;;;;;7.78;70.42;98289.95;1652126;86;25509;-58
2022/05/29 01:44:34;;;;;;;11.15;5.00;;;;;;;7.69;70.81;98290.41;1651397;86;27383;-57
2022/05/29 01:47:14;;;;;;;9.23;5.75;;;;;;;7.68;70.83;98286.08;1651632;86;25604;-56
2022/05/29 01:49:46;;;;;;;10.48;5.20;;;;;;;7.68;70.79;98280.62;1650990;86;25510;-57
2022/05/29 01:52:26;;;;;;;8.85;5.42;;;;;;;7.60;70.80;98285.65;1652116;86;25796;-59
2022/05/29 01:55:07;;;;;;;11.63;6.28;;;;;;;7.57;70.88;98280.80;1651900;86;25469;-57
2022/05/29 01:57:40;;;;;;;10.98;5.67;;;;;;;7.50;70.97;98285.86;1652130;86;27381;-57
2022/05/29 02:00:17;;;;;;;11.18;5.80;;;;;;;7.43;71.25;98290.36;1651513;86;25710;-57
2022/05/29 02:03:09;;;;;;;9.40;6.08;;;;;;;7.39;71.18;98299.69;1651710;86;25695;-58
2022/05/29 02:05:46;;;;;;;11.48;6.10;;;;;;;7.31;71.46;98293.55;1651897;86;26562;-57
2022/05/29 02:08:18;;;;;;;11.12;6.03;;;;;;;7.24;71.60;98298.61;1651314;86;25445;-59
2022/05/29 02:10:55;;;;;;;10.35;6.12;;;;;;;7.17;71.92;98296.28;1652026;86;28350;-57
2022/05/29 02:13:36;;;;;;;12.20;6.45;;;;;;;7.14;71.95;98295.52;1652006;86;25818;-58
2022/05/29 02:16:11;;;;;;;12.28;6.65;;;;;;;7.12;71.79;98294.46;1654987;86;26274;-59
2022/05/29 02:19:00;;;;;;;17.05;6.58;;;;;;;7.06;72.11;98294.30;1659972;86;25874;-56
2022/05/29 02:21:58;;;;;;;10.90;6.83;;;;;;;7.02;72.18;98293.25;1659029;86;25477;-59
2022/05/29 02:24:35;;;;;;;12.73;6.78;;;;;;;6.97;72.50;98296.08;1683894;85;27381;-56
2022/05/29 02:27:22;;;;;;;14.03;7.00;;;;;;;6.90;72.55;98298.64;1683914;85;25728;-56
2022/05/29 02:29:48;;;;;;;12.90;7.87;;;;;;;6.81;72.77;98292.25;1683720;85;25483;-56
2022/05/29 02:33:01;;;;;;;12.78;7.42;;;;;;;6.71;73.29;98294.57;1660835;85;25803;-57
2022/05/29 02:36:19;;;;;;;12.88;7.45;;;;;;;6.65;73.45;98300.66;1683893;85;25762;-56
2022/05/29 02:38:38;;;;;;;12.35;7.40;;;;;;;6.57;73.65;98307.34;1683674;85;25845;-57
2022/05/29 02:41:15;;;;;;;14.95;6.97;;;;;;;6.52;73.55;98307.68;1683678;85;25690;-57
2022/05/29 02:43:58;;;;;;;12.58;6.40;;;;;;;6.56;73.95;98308.45;1684008;85;25561;-57
2022/05/29 02:46:57;;;;;;;15.65;8.75;;;;;;;6.63;74.16;98314.33;1683085;85;26735;-60
2022/05/29 02:49:37;;;;;;;13.83;7.87;;;;;;;6.66;74.92;98312.38;1683929;85;25772;-57
2022/05/29 02:52:10;;;;;;;12.55;7.40;;;;;;;6.74;75.01;98314.98;1684157;85;27563;-59
2022/05/29 02:54:36;;;;;;;13.83;7.17;;;;;;;6.80;74.93;98319.78;1684154;85;25717;-60
2022/05/29 02:57:03;;;;;;;9.53;5.37;;;;;;;6.84;74.49;98312.08;1683864;85;25613;-58
2022/05/29 02:59:37;;;;;;;9.55;5.65;;;;;;;6.88;74.44;98313.09;1684202;85;25722;-57
2022/05/29 03:02:35;;;;;;;9.83;5.37;;;;;;;6.93;74.31;98314.93;1664215;85;25762;-59
2022/05/29 03:05:36;;;;;;;9.68;5.53;;;;;;;6.96;73.94;98323.87;1658667;86;27444;-56
2022/05/29 03:08:35;;;;;;;10.32;6.30;;;;;;;6.99;73.79;98325.18;1658668;86;25593;-56
2022/05/29 03:11:09;;;;;;;9.30;5.80;;;;;;;6.95;74.13;98334.52;1657353;86;25683;-56
2022/05/29 03:13:49;;;;;;;11.88;7.10;;;;;;;6.90;75.23;98335.41;1658897;86;25843;-56
2022/05/29 03:16:32;;;;;;;11.12;7.25;;;;;;;6.78;75.23;98338.59;1656847;86;25718;-57
2022/05/29 03:19:31;;;;;;;11.28;7.22;;;;;;;6.76;74.97;98338.08;1608367;89;28490;-56
2022/05/29 03:22:22;;;;;;;14.25;8.40;;;;;;;6.83;75.05;98344.52;1601735;89;25996;-56
2022/05/29 03:25:02;;;;;;;13.05;8.35;;;;;;;6.92;74.94;98340.56;1599107;89;25754;-56
2022/05/29 03:27:39;;;;;;;13.48;8.78;;;;;;;7.05;74.43;98340.34;1599336;89;26544;-57
2022/05/29 03:30:17;;;;;;;15.88;8.28;;;;;;;7.16;73.98;98343.70;1599165;89;25744;-58
2022/05/29 03:32:44;;;;;;;13.00;7.87;;;;;;;7.30;73.90;98334.74;1599168;89;27464;-60
2022/05/29 03:35:27;;;;;;;11.50;6.92;;;;;;;7.45;73.98;98335.05;1599063;89;25545;-58
2022/05/29 03:37:55;;;;;;;10.32;5.95;;;;;;;7.62;73.58;98333.07;1599021;89;25752;-60
2022/05/29 03:40:23;;;;;;;10.35;5.80;;;;;;;7.80;73.26;98329.98;1599128;89;25748;-57
2022/05/29 03:42:49;;;;;;;12.23;6.25;;;;;;;7.99;73.08;98334.54;1599134;89;25799;-57
2022/05/29 03:45:17;;;;;;;10.38;5.22;;;;;;;8.14;72.69;98335.59;1598998;89;28292;-56
2022/05/29 03:47:43;;;;;;;10.08;5.60;;;;;;;8.25;72.36;98331.27;1598763;89;25688;-57
2022/05/29 03:50:14;;;;;;;8.73;5.37;;;;;;;8.40;72.60;98336.95;1599201;89;25694;-58
2022/05/29 03:52:41;;;;;;;9.03;5.28;;;;;;;8.44;72.63;98338.52;1599241;89;25683;-57
2022/05/29 03:55:09;;;;;;;7.30;4.20;;;;;;;8.52;71.62;98331.76;1602761;87;25874;-56
2022/05/29 03:57:35;;;;;;;7.05;4.62;;;;;;;8.61;71.04;98340.05;1642913;87;27401;-56
2022/05/29 04:00:02;;;;;;;7.58;4.70;;;;;;;8.78;71.65;98335.29;1646949;87;25682;-58
2022/05/29 04:02:28;;;;;;;8.43;4.78;;;;;;;8.96;72.16;98334.06;1647089;87;25689;-57
2022/05/29 04:04:54;;;;;;;7.60;4.25;;;;;;;9.16;70.79;98336.83;1647168;86;25795;-59
2022/05/29 04:12:03;;;;;;;8.18;3.90;;;;;;;9.31;69.55;98338.12;1647290;87;25432;-57
2022/05/29 04:12:32;;;;;;;6.70;4.22;;;;;;;9.63;69.56;98335.63;1647314;87;25474;-58
2022/05/29 04:14:58;;;;;;;8.05;4.35;;;;;;;9.93;68.67;98337.03;1647102;87;25478;-57
2022/05/29 04:17:24;;;;;;;7.37;4.17;;;;;;;10.20;67.88;98339.27;1649612;86;25859;-59
2022/05/29 04:19:49;;;;;;;10.32;4.05;;;;;;;10.38;67.79;98343.65;1644075;86;25688;-60
2022/05/29 04:22:20;;;;;;;11.38;4.40;;;;;;;10.54;67.70;98341.27;1642710;87;27471;-58
2022/05/29 04:24:46;;;;;;;15.40;5.40;;;;;;;10.71;66.69;98341.61;1625908;87;25482;-57
2022/05/29 04:27:16;;;;;;;11.88;5.25;;;;;;;10.79;65.89;98336.67;1642463;87;25506;-57
2022/05/29 04:29:43;;;;;;;10.13;5.37;;;;;;;11.03;65.84;98330.68;1643071;87;25905;-57
2022/05/29 04:34:56;;;;;;;14.40;5.17;;;;;;;11.22;65.50;98346.53;1642462;87;25672;-57
2022/05/29 04:37:24;;;;;;;11.33;4.87;;;;;;;11.31;65.07;98333.61;1642356;87;25648;-58
2022/05/29 04:39:50;;;;;;;10.70;4.95;;;;;;;11.35;64.29;98336.52;1642759;87;25718;-58
2022/05/29 04:42:16;;;;;;;10.30;4.30;;;;;;;11.40;63.87;98342.62;1642586;87;26614;-57
2022/05/29 04:44:42;;;;;;;7.92;4.03;;;;;;;11.49;63.24;98343.18;1643014;87;25743;-58
2022/05/29 04:47:09;;;;;;;6.87;4.10;;;;;;;11.51;63.14;98345.83;1642807;87;28334;-56
2022/05/29 04:49:39;;;;;;;11.43;4.53;;;;;;;11.52;62.93;98341.94;1642448;87;25715;-56
2022/05/29 04:52:08;;;;;;;10.88;4.85;;;;;;;11.62;62.92;98346.28;1642739;87;25679;-56
2022/05/29 04:54:36;;;;;;;7.85;4.10;;;;;;;11.73;63.21;98343.16;1642089;86;27764;-60
2022/05/29 04:57:03;;;;;;;9.73;4.33;;;;;;;11.87;63.00;98346.52;1642747;87;25609;-59
2022/05/29 04:59:29;;;;;;;9.25;4.35;;;;;;;12.00;62.85;98343.88;1642625;87;27505;-58
2022/05/29 05:02:00;;;;;;;8.45;4.22;;;;;;;12.09;61.22;98346.00;1642029;86;25609;-60
2022/05/29 05:04:27;;;;;;;8.50;4.47;;;;;;;12.07;61.58;98342.80;1647577;86;25767;-59
2022/05/29 05:07:01;;;;;;;10.50;4.42;;;;;;;12.20;61.73;98347.02;1648141;86;26529;-57
2022/05/29 05:09:29;;;;;;;8.13;3.70;;;;;;;12.31;61.77;98335.86;1647654;86;25655;-57
2022/05/29 05:11:56;;;;;;;8.68;3.75;;;;;;;12.35;60.27;98342.30;1645144;86;28204;-57
2022/05/29 05:14:25;;;;;;;11.33;4.03;;;;;;;12.35;60.74;98340.92;1647063;86;25796;-57
2022/05/29 05:16:53;;;;;;;11.85;3.95;;;;;;;12.46;62.28;98341.92;1648460;86;26147;-62
2022/05/29 05:19:20;;;;;;;8.23;3.83;;;;;;;12.67;61.46;98330.34;1655445;86;25762;-60
2022/05/29 05:21:46;;;;;;;6.97;3.50;;;;;;;12.77;60.40;98338.77;1650802;86;25603;-59
2022/05/29 05:24:12;;;;;;;5.00;2.40;;;;;;;12.93;61.30;98340.91;1648649;85;27249;-61
2022/05/29 05:26:39;;;;;;;6.35;2.40;;;;;;;13.08;59.09;98337.27;1653908;85;25881;-61
2022/05/29 05:29:07;;;;;;;4.22;2.10;;;;;;;13.15;58.55;98339.71;1653558;86;25605;-58
2022/05/29 05:31:33;;;;;;;4.15;1.90;;;;;;;13.18;57.73;98340.41;1648040;86;25720;-58
2022/05/29 05:34:00;;;;;;;7.15;2.10;;;;;;;13.20;57.63;98336.50;1651318;86;25654;-61
2022/05/29 05:36:26;;;;;;;6.45;2.05;;;;;;;13.33;58.22;98336.80;1646622;86;27853;-61
2022/05/29 05:38:53;;;;;;;5.12;1.95;;;;;;;13.48;59.15;98338.09;1654101;86;25663;-57
2022/05/29 05:41:20;;;;;;;7.83;2.10;;;;;;;13.68;58.11;98330.11;1633703;86;25704;-59
2022/05/29 05:43:47;;;;;;;4.33;2.00;;;;;;;13.78;57.14;98332.97;1630288;87;25846;-58
2022/05/29 05:46:17;;;;;;;6.12;1.75;;;;;;;13.88;58.14;98331.13;1654010;86;25761;-58
2022/05/29 05:48:43;;;;;;;5.80;2.05;;;;;;;14.05;57.66;98332.08;1633790;86;27387;-61
2022/05/29 05:51:11;;;;;;;3.52;2.00;;;;;;;14.24;57.12;98333.41;1652034;86;25469;-59
2022/05/29 05:53:38;;;;;;;8.28;2.15;;;;;;;14.30;56.66;98327.33;1633314;87;25763;-59
2022/05/29 05:56:11;;;;;;;4.95;1.75;;;;;;;14.38;56.01;98329.73;1650795;86;25864;-61
2022/05/29 05:58:39;;;;;;;3.85;1.70;;;;;;;14.46;55.78;98334.89;1649271;87;26186;-61
2022/05/29 06:01:09;;;;;;;4.47;1.70;;;;;;;14.63;56.21;98329.68;1649361;87;27636;-62
2022/05/29 06:03:36;;;;;;;3.92;1.47;;;;;;;14.78;55.19;98337.82;1649476;87;25663;-62
2022/05/29 06:06:02;;;;;;;3.15;1.10;;;;;;;14.87;54.32;98334.91;1649294;87;25717;-61
2022/05/29 06:08:29;;;;;;;3.50;1.30;;;;;;;14.82;53.00;98331.60;1649076;86;26716;-58
2022/05/29 06:10:55;;;;;;;3.25;1.17;;;;;;;14.87;53.32;98331.34;1655053;86;25472;-61
2022/05/29 06:13:21;;;;;;;3.98;1.20;;;;;;;15.02;52.62;98331.97;1655305;86;28304;-58
2022/05/29 06:15:47;;;;;;;3.95;1.22;;;;;;;15.11;52.42;98333.78;1657570;85;25764;-58
2022/05/29 06:18:15;;;;;;;3.55;1.10;;;;;;;15.16;51.86;98330.19;1634004;87;25461;-63
2022/05/29 06:20:43;;;;;;;6.85;1.60;;;;;;;15.19;52.86;98325.91;1634050;87;26452;-58
2022/05/29 06:23:10;;;;;;;3.85;1.27;;;;;;;15.33;49.15;98324.67;1631890;87;25720;-58
2022/05/29 06:25:40;;;;;;;4.83;1.40;;;;;;;15.05;49.63;98334.03;1634133;87;27433;-58
2022/05/29 06:28:08;;;;;;;2.62;1.10;;;;;;;15.20;51.74;98334.41;1634137;87;25835;-62
2022/05/29 06:30:35;;;;;;;3.25;1.55;;;;;;;15.22;49.86;98333.48;1633994;87;25513;-58
2022/05/29 06:33:02;;;;;;;5.70;2.15;;;;;;;15.39;49.90;98332.36;1634457;87;25773;-57
2022/05/29 06:35:28;;;;;;;4.00;1.30;;;;;;;15.60;50.75;98327.16;1633955;87;25455;-58
2022/05/29 06:37:55;;;;;;;4.03;1.37;;;;;;;15.80;49.79;98321.14;1634294;87;27371;-57
2022/05/29 06:40:22;;;;;;;6.75;1.42;;;;;;;15.82;49.95;98316.64;1634187;87;25633;-58
2022/05/29 06:42:48;;;;;;;4.17;1.40;;;;;;;15.97;48.25;98322.55;1633758;87;25628;-58
2022/05/29 06:45:14;;;;;;;4.85;1.50;;;;;;;16.05;49.26;98319.59;1634181;87;26575;-58
2022/05/29 06:47:40;;;;;;;4.85;1.55;;;;;;;16.27;48.85;98314.53;1633926;87;25667;-58
2022/05/29 06:50:09;;;;;;;5.75;1.50;;;;;;;16.42;46.45;98314.30;1634271;87;28119;-60
2022/05/29 06:52:36;;;;;;;4.33;1.12;;;;;;;16.20;48.26;98311.62;1634106;87;25652;-59
2022/05/29 06:55:05;;;;;;;4.37;1.20;;;;;;;16.32;48.20;98305.16;1633899;87;25655;-60
2022/05/29 06:57:40;;;;;;;4.75;1.10;;;;;;;16.57;48.97;98311.82;1634363;87;25744;-59
2022/05/29 07:08:39;;;;;;;3.33;1.10;;;;;;;17.52;46.73;98302.55;1633936;87;25752;-59
2022/05/29 07:11:19;;;;;;;2.33;1.20;;;;;;;17.19;43.97;98300.61;1634060;87;25779;-62
2022/05/29 07:13:45;;;;;;;4.37;1.32;;;;;;;17.27;46.92;98300.16;1634470;87;25661;-62
2022/05/29 07:16:12;;;;;;;3.37;1.50;;;;;;;17.56;44.80;98301.45;1633634;87;27345;-57
2022/05/29 07:18:38;;;;;;;3.40;1.30;;;;;;;17.62;44.45;98292.84;1630713;87;25726;-58
2022/05/29 07:21:10;;;;;;;3.22;1.00;;;;;;;17.67;44.59;98296.09;1633841;87;25623;-62
2022/05/29 07:23:38;;;;;;;3.05;1.10;;;;;;;17.71;43.23;98292.58;1634357;87;25688;-60
2022/05/29 07:26:04;;;;;;;3.55;1.45;;;;;;;17.74;45.04;98293.22;1634274;87;25620;-59
2022/05/29 07:28:30;;;;;;;4.25;1.20;;;;;;;18.11;45.24;98285.70;1634574;87;28269;-59
2022/05/29 07:30:56;;;;;;;3.30;1.07;;;;;;;18.48;44.16;98296.68;1634228;87;25617;-59
2022/05/29 07:33:25;;;;;;;4.08;1.62;;;;;;;18.75;44.29;98287.50;1634432;87;25462;-58
2022/05/29 07:35:52;;;;;;;1.82;1.10;;;;;;;19.05;43.07;98281.89;1633930;87;25749;-58
2022/05/29 07:38:19;;;;;;;3.08;1.22;;;;;;;19.31;43.80;98284.36;1634310;87;25711;-62
2022/05/29 07:40:46;;;;;;;4.03;1.30;;;;;;;19.51;40.73;98280.55;1633929;87;27516;-59
2022/05/29 07:43:22;;;;;;;3.42;1.42;;;;;;;19.30;40.38;98279.19;1634147;87;25938;-58
2022/05/29 07:45:56;;;;;;;3.33;1.10;;;;;;;18.98;40.95;98275.46;1633933;87;25643;-60
2022/05/29 07:48:28;;;;;;;2.85;0.90;;;;;;;18.83;41.17;98275.90;1633870;87;25935;-58
2022/05/29 07:50:55;;;;;;;4.17;1.20;;;;;;;19.19;40.08;98283.24;1633913;87;25675;-59
2022/05/29 07:53:22;;;;;;;4.85;1.20;;;;;;;19.06;39.52;98279.92;1634167;87;27467;-59
2022/05/29 07:55:48;;;;;;;3.35;1.30;;;;;;;19.04;40.28;98284.47;1633866;87;25504;-60
2022/05/29 07:58:16;;;;;;;6.28;2.50;;;;;;;19.10;39.06;98281.36;1634343;87;25736;-59
2022/05/29 08:00:43;;;;;;;4.22;1.12;;;;;;;19.30;40.34;98285.55;1633956;87;25737;-58
2022/05/29 08:03:10;;;;;;;2.45;1.00;;;;;;;19.87;40.30;98276.69;1634128;87;25609;-58
2022/05/29 08:05:38;;;;;;;3.42;1.05;;;;;;;20.26;41.14;98274.58;1634321;87;26734;-61
2022/05/29 08:08:08;;;;;;;1.82;0.82;;;;;;;20.77;39.00;98276.17;1633931;87;25650;-61
2022/05/29 08:10:37;;;;;;;2.95;1.02;;;;;;;20.96;37.02;98284.03;1634306;87;25717;-59
2022/05/29 08:13:05;;;;;;;2.92;1.17;;;;;;;20.66;38.11;98274.73;1630331;87;25828;-59
2022/05/29 08:15:32;;;;;;;3.08;1.00;;;;;;;20.77;38.85;98274.78;1634041;87;25670;-61
2022/05/29 08:17:58;;;;;;;3.20;0.95;;;;;;;20.85;36.92;98277.80;1633854;87;27595;-59
2022/05/29 08:20:27;;;;;;;3.72;1.00;;;;;;;20.85;35.61;98279.78;1633784;87;25724;-61
2022/05/29 08:22:54;;;;;;;7.08;3.30;;;;;;;21.00;35.17;98277.28;1633901;87;25664;-61
2022/05/29 08:30:54;;;;;;;7.47;5.53;;;;;;;21.45;36.16;98271.98;1650033;86;25641;-59
2022/05/29 08:33:30;;;;;;;3.52;1.90;;;;;;;22.08;37.57;98268.56;1649315;85;25481;-62
2022/05/29 08:36:10;;;;;;;24.95;8.78;;;;;;;22.61;36.22;98268.23;1634009;87;25503;-61
2022/05/29 08:38:41;;;;;;;8.83;3.67;;;;;;;23.09;36.64;98270.78;1638526;87;26652;-62
2022/05/29 08:41:18;;;;;;;5.95;1.98;;;;;;;23.16;32.89;98260.95;1643941;87;25695;-58
2022/05/29 08:44:13;;;;;;;2.60;1.65;;;;;;;22.92;32.54;98259.31;1643909;87;27435;-59
2022/05/29 08:46:52;;;;;;;3.40;1.20;;;;;;;23.00;32.83;98257.27;1643859;87;25494;-58
2022/05/29 08:49:26;;;;;;;4.33;1.80;;;;;;;23.14;32.58;98251.58;1639337;87;25530;-60
2022/05/29 08:52:24;;;;;;;2.87;0.90;;;;;;;23.40;34.24;98242.44;1634309;87;26404;-58
2022/05/29 08:55:13;;;;;;;2.77;1.10;;;;;;;23.26;32.75;98252.31;1638885;87;25521;-57
2022/05/29 08:58:11;;;;;;;3.85;1.12;;;;;;;23.13;34.78;98250.00;1643276;86;28049;-58
2022/05/29 09:00:49;;;;;;;5.75;3.10;;;;;;;23.56;33.28;98246.12;1643341;87;25696;-58
2022/05/29 09:03:45;;;;;;;3.47;1.12;;;;;;;23.84;33.84;98248.27;1636795;87;25775;-58
2022/05/29 09:06:17;;;;;;;4.85;2.00;;;;;;;24.01;33.69;98237.48;1640325;87;26071;-58
2022/05/29 09:09:06;;;;;;;2.15;1.22;;;;;;;24.23;32.78;98234.48;1629195;87;25459;-58
2022/05/29 09:11:40;;;;;;;3.08;1.10;;;;;;;24.48;31.61;98239.00;1630405;87;28084;-58
2022/05/29 09:14:27;;;;;;;2.22;1.00;;;;;;;24.83;31.62;98242.34;1649172;86;25710;-58
2022/05/29 09:17:11;;;;;;;1.65;0.98;;;;;;;25.00;28.17;98246.14;1644764;87;25671;-58
2022/05/29 09:19:55;;;;;;;1.87;0.90;;;;;;;25.01;31.43;98244.95;1648333;86;25742;-59
2022/05/29 09:22:41;;;;;;;3.60;1.35;;;;;;;24.80;31.45;98246.80;1648888;86;25444;-62
2022/05/29 09:25:29;;;;;;;2.55;0.98;;;;;;;25.04;29.24;98240.67;1630690;87;27353;-58
2022/05/29 09:28:03;;;;;;;2.67;0.95;;;;;;;24.81;27.89;98236.56;1632741;87;25830;-63
2022/05/29 09:30:31;;;;;;;1.52;0.70;;;;;;;24.30;28.77;98235.02;1632892;87;25717;-60
2022/05/29 09:33:05;;;;;;;7.62;3.22;;;;;;;24.32;29.68;98232.58;1598919;89;26236;-60
2022/05/29 09:35:55;;;;;;;3.05;1.10;;;;;;;24.43;29.52;98228.25;1599305;89;25460;-60
2022/05/29 09:38:42;;;;;;;3.75;1.77;;;;;;;24.40;29.61;98227.69;1598816;89;54391;-61
2022/05/29 09:41:20;;;;;;;3.58;1.35;;;;;;;24.37;31.53;98225.72;1598724;88;25515;-60
2022/05/29 09:44:13;;;;;;;2.70;1.30;;;;;;;24.42;30.25;98219.08;1598886;88;25542;-60
2022/05/29 09:46:43;;;;;;;3.22;0.90;;;;;;;23.97;28.07;98210.15;1616238;88;25753;-60
2022/05/29 09:49:41;;;;;;;2.85;0.80;;;;;;;23.98;28.95;98210.36;1596359;89;25511;-61
2022/05/29 09:52:21;;;;;;;4.22;2.20;;;;;;;23.90;29.37;98213.03;1596134;89;27557;-63
2022/05/29 09:55:22;;;;;;;2.20;1.20;;;;;;;23.66;30.76;98212.25;1596233;89;25937;-61
2022/05/29 09:58:02;;;;;;;2.87;1.00;;;;;;;23.48;30.99;98207.42;1595898;89;25735;-61
2022/05/29 10:00:36;;;;;;;3.95;1.95;;;;;;;23.15;31.27;98218.25;1596320;89;25769;-62
2022/05/29 10:03:14;;;;;;;4.20;1.50;;;;;;;23.00;31.05;98222.34;1605304;89;25485;-63
2022/05/29 10:05:42;;;;;;;2.33;1.10;;;;;;;22.90;31.46;98221.20;1595094;89;27294;-60
2022/05/29 10:08:30;;;;;;;2.17;1.15;;;;;;;23.49;30.26;98218.81;1596235;89;25854;-63
2022/05/29 10:11:12;;;;;;;3.45;1.25;;;;;;;24.05;29.99;98219.27;1592738;89;25667;-59
2022/05/29 10:13:42;;;;;;;4.60;1.72;;;;;;;24.76;27.42;98219.44;1585401;89;25794;-58
2022/05/29 10:16:11;;;;;;;2.30;0.93;;;;;;;25.25;30.54;98219.16;1596308;89;25507;-59
2022/05/29 10:18:41;;;;;;;3.02;1.00;;;;;;;25.85;28.77;98221.98;1596562;89;27899;-59
2022/05/29 10:21:27;;;;;;;7.33;2.47;;;;;;;26.42;28.78;98220.69;1598419;89;25807;-59
2022/05/29 10:24:11;;;;;;;5.45;2.33;;;;;;;26.91;28.01;98223.45;1598485;89;25738;-61
2022/05/29 10:26:39;;;;;;;6.72;3.05;;;;;;;27.11;26.64;98230.30;1598493;89;25929;-61
2022/05/29 10:29:16;;;;;;;3.55;1.52;;;;;;;27.15;25.96;98219.14;1581564;90;25458;-64
2022/05/29 10:31:46;;;;;;;7.05;2.70;;;;;;;26.98;25.90;98213.28;1627733;87;27397;-62
2022/05/29 10:34:29;;;;;;;2.62;1.10;;;;;;;27.17;25.58;98211.04;1626906;87;25460;-62
2022/05/29 10:36:56;;;;;;;2.87;1.10;;;;;;;27.10;26.57;98203.39;1625370;87;25480;-63
2022/05/29 10:39:29;;;;;;;1.80;0.93;;;;;;;27.25;26.17;98203.83;1608009;89;25715;-63
2022/05/29 10:41:58;;;;;;;2.22;0.82;;;;;;;26.71;27.01;98209.45;1628085;86;25695;-62
2022/05/29 10:44:46;;;;;;;2.55;0.90;;;;;;;26.06;27.52;98206.75;1628375;87;26686;-62
2022/05/29 10:47:30;;;;;;;2.15;0.90;;;;;;;25.74;28.50;98208.14;1607930;89;25796;-62
2022/05/29 10:50:26;;;;;;;2.12;1.07;;;;;;;25.81;26.91;98198.78;1628234;87;25693;-62
2022/05/29 10:53:07;;;;;;;2.25;1.10;;;;;;;25.44;25.19;98189.58;1607088;89;25785;-59
2022/05/29 10:56:04;;;;;;;3.00;1.45;;;;;;;25.37;26.75;98190.31;1630052;86;25599;-57
2022/05/29 10:58:45;;;;;;;2.20;0.90;;;;;;;25.94;28.15;98194.12;1620729;88;28411;-57
2022/05/29 11:05:02;;;;;;;7.33;3.58;;;;;;;26.73;27.56;98185.13;1600980;89;25643;-56
2022/05/29 11:08:04;;;;;;;5.35;2.85;;;;;;;27.60;23.22;98174.61;1549585;92;26022;-58
2022/05/29 11:10:43;;;;;;;3.92;1.22;;;;;;;27.85;23.47;98182.23;1554816;90;25772;-61
2022/05/29 11:13:37;;;;;;;2.90;1.20;;;;;;;28.17;24.77;98182.75;1554802;92;27482;-59
2022/05/29 11:16:47;;;;;;;15.75;8.25;;;;;;;28.55;24.30;98168.59;1575791;91;25684;-57
2022/05/29 11:19:38;;;;;;;2.92;1.32;;;;;;;28.78;21.72;98165.91;1575983;91;25798;-58
2022/05/29 11:22:25;;;;;;;3.80;1.77;;;;;;;28.93;22.31;98162.02;1533186;93;26405;-61
2022/05/29 11:25:00;;;;;;;2.85;1.12;;;;;;;28.95;22.26;98155.95;1523593;93;25588;-58
2022/05/29 11:27:59;;;;;;;3.55;1.55;;;;;;;28.65;22.37;98143.34;1534966;93;27507;-59
2022/05/29 11:30:50;;;;;;;7.97;2.92;;;;;;;28.33;22.02;98136.06;1533721;93;26140;-59
2022/05/29 11:33:46;;;;;;;1.95;0.93;;;;;;;27.91;22.60;98122.14;1577358;90;25500;-57
2022/05/29 11:36:30;;;;;;;1.90;0.90;;;;;;;26.44;22.78;98114.92;1533344;93;25783;-57
2022/05/29 11:39:05;;;;;;;1.22;0.80;;;;;;;25.34;22.95;98102.83;1531589;93;25850;-57
2022/05/29 11:41:39;;;;;;;2.52;1.30;;;;;;;24.71;23.94;98102.23;1579277;90;28364;-58
2022/05/29 11:44:11;;;;;;;1.60;0.90;;;;;;;24.55;24.56;98105.86;1593679;87;27136;-57
2022/05/29 11:52:57;;;;;;;2.42;1.30;;;;;;;24.73;25.56;98109.02;1638401;87;25852;-58
2022/05/29 11:55:32;;;;;;;1.98;0.93;;;;;;;24.80;26.08;98106.70;1637865;87;27486;-61
2022/05/29 11:58:11;;;;;;;9.78;4.25;;;;;;;25.06;25.03;98114.91;1638314;87;25763;-60
2022/05/29 12:00:43;;;;;;;10.53;4.77;;;;;;;25.25;24.33;98119.61;1623692;87;25888;-57
2022/05/29 12:03:36;;;;;;;4.65;2.30;;;;;;;25.27;24.17;98112.95;1638295;87;25816;-57
2022/05/29 12:06:31;;;;;;;10.98;5.45;;;;;;;25.13;23.33;98116.02;1638379;87;25505;-61
2022/05/29 12:09:48;;;;;;;3.08;1.20;;;;;;;24.90;24.50;98112.76;1638471;87;27225;-61
2022/05/29 12:12:35;;;;;;;2.00;0.90;;;;;;;24.65;24.13;98107.53;1585805;90;25727;-58
2022/05/29 12:15:10;;;;;;;1.82;0.80;;;;;;;24.74;24.83;98098.58;1585697;90;25623;-57
2022/05/29 12:17:50;;;;;;;2.40;0.78;;;;;;;24.54;24.34;98099.28;1585893;90;26111;-58
2022/05/29 12:20:44;;;;;;;3.15;1.07;;;;;;;24.06;26.23;98094.30;1574428;90;25595;-58
2022/05/29 12:23:34;;;;;;;2.33;1.10;;;;;;;23.53;26.25;98099.33;1570252;91;28309;-58
2022/05/29 12:26:06;;;;;;;1.05;0.90;;;;;;;22.77;26.63;98102.19;1570222;91;25752;-57
2022/05/29 12:28:43;;;;;;;2.58;1.00;;;;;;;22.13;26.76;98107.73;1570697;91;25580;-59
2022/05/29 12:31:18;;;;;;;2.52;1.35;;;;;;;21.49;27.32;98115.86;1572384;90;25795;-59
2022/05/29 12:33:46;;;;;;;3.25;1.87;;;;;;;21.29;28.22;98114.91;1572647;90;25714;-58
2022/05/29 12:36:49;;;;;;;2.45;1.20;;;;;;;21.51;28.90;98111.50;1572833;90;27402;-59
2022/05/29 12:39:46;;;;;;;1.52;0.82;;;;;;;21.46;27.65;98116.66;1572408;91;25764;-57
2022/05/29 12:42:29;;;;;;;2.65;1.10;;;;;;;20.97;28.40;98119.89;1572129;91;25679;-58